sensor_id;sensor_type;location;lat;lon;timestamp;pressure;altitude;pressure_sealevel;temperature;humidity
75699;BME280;64313;51.018;13.742;2024-03-25T00:00:42;98122.50;;;5.44;74.68
75699;BME280;64313;51.018;13.742;2024-03-25T00:03:07;98126.19;;;5.43;73.73
75699;BME280;64313;51.018;13.742;2024-03-25T00:05:32;98117.03;;;5.39;74.20
75699;BME280;64313;51.018;13.742;2024-03-25T00:07:58;98111.97;;;5.38;75.06
75699;BME280;64313;51.018;13.742;2024-03-25T00:10:23;98114.84;;;5.36;74.60
75699;BME280;64313;51.018;13.742;2024-03-25T00:12:49;98123.00;;;5.35;74.92
75699;BME280;64313;51.018;13.742;2024-03-25T00:15:21;98127.66;;;5.33;75.61
75699;BME280;64313;51.018;13.742;2024-03-25T00:17:49;98133.97;;;5.32;74.98
75699;BME280;64313;51.018;13.742;2024-03-25T00:20:14;98126.25;;;5.30;75.57
75699;BME280;64313;51.018;13.742;2024-03-25T00:22:40;98132.56;;;5.29;76.36
75699;BME280;64313;51.018;13.742;2024-03-25T00:25:06;98138.88;;;5.28;76.79
75699;BME280;64313;51.018;13.742;2024-03-25T00:27:31;98142.13;;;5.30;75.94
75699;BME280;64313;51.018;13.742;2024-03-25T00:29:56;98149.47;;;5.28;75.84
75699;BME280;64313;51.018;13.742;2024-03-25T00:32:22;98144.19;;;5.28;76.59
75699;BME280;64313;51.018;13.742;2024-03-25T00:34:47;98140.09;;;5.26;76.76
75699;BME280;64313;51.018;13.742;2024-03-25T00:37:12;98142.97;;;5.24;75.88
75699;BME280;64313;51.018;13.742;2024-03-25T00:39:40;98142.56;;;5.21;77.20
75699;BME280;64313;51.018;13.742;2024-03-25T00:42:05;98142.19;;;5.17;76.21
75699;BME280;64313;51.018;13.742;2024-03-25T00:44:30;98139.78;;;5.15;77.10
75699;BME280;64313;51.018;13.742;2024-03-25T00:46:55;98148.09;;;5.12;76.49
75699;BME280;64313;51.018;13.742;2024-03-25T00:49:21;98138.34;;;5.13;78.15
75699;BME280;64313;51.018;13.742;2024-03-25T00:51:49;98141.22;;;5.11;78.13
75699;BME280;64313;51.018;13.742;2024-03-25T00:54:14;98141.41;;;5.10;77.72
75699;BME280;64313;51.018;13.742;2024-03-25T00:56:39;98141.63;;;5.08;77.75
75699;BME280;64313;51.018;13.742;2024-03-25T00:59:04;98136.31;;;5.08;76.65
75699;BME280;64313;51.018;13.742;2024-03-25T01:01:32;98130.44;;;5.06;78.96
75699;BME280;64313;51.018;13.742;2024-03-25T01:03:58;98140.81;;;5.08;78.49
75699;BME280;64313;51.018;13.742;2024-03-25T01:06:23;98133.69;;;5.08;78.28
75699;BME280;64313;51.018;13.742;2024-03-25T01:08:49;98129.44;;;5.07;78.05
75699;BME280;64313;51.018;13.742;2024-03-25T01:11:15;98130.44;;;5.06;77.97
75699;BME280;64313;51.018;13.742;2024-03-25T01:13:40;98127.59;;;5.08;77.89
75699;BME280;64313;51.018;13.742;2024-03-25T01:16:07;98138.97;;;5.08;78.82
75699;BME280;64313;51.018;13.742;2024-03-25T01:18:32;98133.91;;;5.07;78.01
75699;BME280;64313;51.018;13.742;2024-03-25T01:20:58;98140.22;;;5.06;77.77
75699;BME280;64313;51.018;13.742;2024-03-25T01:23:23;98146.31;;;5.06;78.86
75699;BME280;64313;51.018;13.742;2024-03-25T01:25:48;98154.22;;;5.06;78.70
75699;BME280;64313;51.018;13.742;2024-03-25T01:28:13;98149.75;;;5.07;79.23
75699;BME280;64313;51.018;13.742;2024-03-25T01:30:39;98154.44;;;5.05;78.17
75699;BME280;64313;51.018;13.742;2024-03-25T01:33:04;98154.22;;;5.06;77.56
75699;BME280;64313;51.018;13.742;2024-03-25T01:35:30;98176.41;;;5.05;77.71
75699;BME280;64313;51.018;13.742;2024-03-25T01:37:56;98163.41;;;5.04;78.23
75699;BME280;64313;51.018;13.742;2024-03-25T01:40:21;98159.31;;;5.01;77.59
75699;BME280;64313;51.018;13.742;2024-03-25T01:43:01;98173.56;;;5.00;78.01
75699;BME280;64313;51.018;13.742;2024-03-25T01:45:29;98178.47;;;4.97;77.34
75699;BME280;64313;51.018;13.742;2024-03-25T01:47:56;98178.88;;;4.94;76.97
75699;BME280;64313;51.018;13.742;2024-03-25T01:50:22;98177.47;;;4.91;77.09
75699;BME280;64313;51.018;13.742;2024-03-25T01:52:48;98179.50;;;4.89;77.33
75699;BME280;64313;51.018;13.742;2024-03-25T01:55:18;98183.16;;;4.88;77.20
75699;BME280;64313;51.018;13.742;2024-03-25T01:57:46;98192.31;;;4.85;77.58
75699;BME280;64313;51.018;13.742;2024-03-25T02:00:12;98197.19;;;4.82;77.17
75699;BME280;64313;51.018;13.742;2024-03-25T02:02:45;98187.28;;;4.77;76.48
75699;BME280;64313;51.018;13.742;2024-03-25T02:05:13;98185.25;;;4.73;77.15
75699;BME280;64313;51.018;13.742;2024-03-25T02:07:40;98190.94;;;4.70;76.69
75699;BME280;64313;51.018;13.742;2024-03-25T02:10:07;98194.81;;;4.67;77.16
75699;BME280;64313;51.018;13.742;2024-03-25T02:12:35;98192.38;;;4.66;77.77
75699;BME280;64313;51.018;13.742;2024-03-25T02:15:01;98203.16;;;4.64;77.43
75699;BME280;64313;51.018;13.742;2024-03-25T02:17:26;98200.50;;;4.64;76.92
75699;BME280;64313;51.018;13.742;2024-03-25T02:19:51;98200.50;;;4.64;77.84
75699;BME280;64313;51.018;13.742;2024-03-25T02:22:17;98204.16;;;4.63;78.82
75699;BME280;64313;51.018;13.742;2024-03-25T02:24:43;98192.78;;;4.62;78.71
75699;BME280;64313;51.018;13.742;2024-03-25T02:27:10;98196.44;;;4.61;79.26
75699;BME280;64313;51.018;13.742;2024-03-25T02:29:39;98193.78;;;4.61;78.93
75699;BME280;64313;51.018;13.742;2024-03-25T02:32:05;98198.88;;;4.63;79.00
75699;BME280;64313;51.018;13.742;2024-03-25T02:34:31;98204.94;;;4.63;79.30
75699;BME280;64313;51.018;13.742;2024-03-25T02:36:56;98196.84;;;4.65;78.29
75699;BME280;64313;51.018;13.742;2024-03-25T02:39:22;98209.84;;;4.67;79.93
75699;BME280;64313;51.018;13.742;2024-03-25T02:41:49;98199.06;;;4.68;79.05
75699;BME280;64313;51.018;13.742;2024-03-25T02:44:15;98200.69;;;4.69;79.58
75699;BME280;64313;51.018;13.742;2024-03-25T02:46:41;98201.69;;;4.68;80.05
75699;BME280;64313;51.018;13.742;2024-03-25T02:49:06;98212.06;;;4.70;78.73
75699;BME280;64313;51.018;13.742;2024-03-25T02:51:31;98216.34;;;4.71;79.54
75699;BME280;64313;51.018;13.742;2024-03-25T02:53:56;98201.31;;;4.71;79.49
75699;BME280;64313;51.018;13.742;2024-03-25T02:56:22;98210.03;;;4.72;79.74
75699;BME280;64313;51.018;13.742;2024-03-25T02:58:47;98206.38;;;4.73;79.38
75699;BME280;64313;51.018;13.742;2024-03-25T03:01:12;98211.22;;;4.76;79.93
75699;BME280;64313;51.018;13.742;2024-03-25T03:03:37;98218.16;;;4.77;79.65
75699;BME280;64313;51.018;13.742;2024-03-25T03:06:03;98218.34;;;4.75;80.29
75699;BME280;64313;51.018;13.742;2024-03-25T03:08:28;98229.53;;;4.77;79.67
75699;BME280;64313;51.018;13.742;2024-03-25T03:10:53;98233.78;;;4.78;80.02
75699;BME280;64313;51.018;13.742;2024-03-25T03:13:19;98242.53;;;4.79;79.24
75699;BME280;64313;51.018;13.742;2024-03-25T03:15:44;98236.22;;;4.80;80.18
75699;BME280;64313;51.018;13.742;2024-03-25T03:18:09;98243.13;;;4.81;80.02
75699;BME280;64313;51.018;13.742;2024-03-25T03:20:35;98246.56;;;4.81;80.35
75699;BME280;64313;51.018;13.742;2024-03-25T03:23:00;98251.63;;;4.83;79.54
75699;BME280;64313;51.018;13.742;2024-03-25T03:25:25;98250.66;;;4.84;79.65
75699;BME280;64313;51.018;13.742;2024-03-25T03:27:51;98249.63;;;4.85;79.45
75699;BME280;64313;51.018;13.742;2024-03-25T03:30:17;98248.59;;;4.86;79.92
75699;BME280;64313;51.018;13.742;2024-03-25T03:32:43;98254.09;;;4.84;79.05
75699;BME280;64313;51.018;13.742;2024-03-25T03:35:08;98245.16;;;4.85;78.68
75699;BME280;64313;51.018;13.742;2024-03-25T03:37:33;98260.78;;;4.87;79.16
75699;BME280;64313;51.018;13.742;2024-03-25T03:39:58;98266.88;;;4.87;78.21
75699;BME280;64313;51.018;13.742;2024-03-25T03:42:24;98265.03;;;4.88;79.23
75699;BME280;64313;51.018;13.742;2024-03-25T03:44:49;98265.25;;;4.86;79.31
75699;BME280;64313;51.018;13.742;2024-03-25T03:47:14;98267.69;;;4.88;78.85
75699;BME280;64313;51.018;13.742;2024-03-25T03:49:39;98281.91;;;4.87;79.18
75699;BME280;64313;51.018;13.742;2024-03-25T03:52:05;98272.16;;;4.87;78.66
75699;BME280;64313;51.018;13.742;2024-03-25T03:54:31;98277.44;;;4.87;79.13
75699;BME280;64313;51.018;13.742;2024-03-25T03:56:56;98280.88;;;4.88;78.66
75699;BME280;64313;51.018;13.742;2024-03-25T03:59:22;98285.34;;;4.87;78.47
75699;BME280;64313;51.018;13.742;2024-03-25T04:01:47;98276.63;;;4.87;78.90
75699;BME280;64313;51.018;13.742;2024-03-25T04:04:12;98280.06;;;4.87;78.43
75699;BME280;64313;51.018;13.742;2024-03-25T04:06:37;98289.84;;;4.87;78.84
75699;BME280;64313;51.018;13.742;2024-03-25T04:09:06;98289.03;;;4.86;79.15
75699;BME280;64313;51.018;13.742;2024-03-25T04:11:32;98296.94;;;4.86;79.17
75699;BME280;64313;51.018;13.742;2024-03-25T04:13:57;98296.75;;;4.88;78.84
75699;BME280;64313;51.018;13.742;2024-03-25T04:16:22;98304.66;;;4.88;78.19
75699;BME280;64313;51.018;13.742;2024-03-25T04:18:48;98310.75;;;4.88;78.40
75699;BME280;64313;51.018;13.742;2024-03-25T04:21:13;98297.53;;;4.88;77.97
75699;BME280;64313;51.018;13.742;2024-03-25T04:23:39;98313.22;;;4.90;77.89
75699;BME280;64313;51.018;13.742;2024-03-25T04:26:06;98317.69;;;4.89;77.54
75699;BME280;64313;51.018;13.742;2024-03-25T04:28:32;98315.03;;;4.89;77.67
75699;BME280;64313;51.018;13.742;2024-03-25T04:30:58;98319.09;;;4.92;77.77
75699;BME280;64313;51.018;13.742;2024-03-25T04:33:23;98341.03;;;4.93;77.97
75699;BME280;64313;51.018;13.742;2024-03-25T04:35:48;98337.59;;;4.92;77.50
75699;BME280;64313;51.018;13.742;2024-03-25T04:38:16;98336.56;;;4.93;77.38
75699;BME280;64313;51.018;13.742;2024-03-25T04:40:41;98340.00;;;4.94;77.39
75699;BME280;64313;51.018;13.742;2024-03-25T04:43:07;98347.94;;;4.94;77.04
75699;BME280;64313;51.018;13.742;2024-03-25T04:45:32;98355.88;;;4.94;77.56
75699;BME280;64313;51.018;13.742;2024-03-25T04:47:57;98349.56;;;4.95;76.20
75699;BME280;64313;51.018;13.742;2024-03-25T04:50:23;98354.84;;;4.95;76.88
75699;BME280;64313;51.018;13.742;2024-03-25T04:52:48;98360.94;;;4.95;76.16
75699;BME280;64313;51.018;13.742;2024-03-25T04:55:13;98365.41;;;4.95;76.54
75699;BME280;64313;51.018;13.742;2024-03-25T04:57:39;98366.22;;;4.95;77.14
75699;BME280;64313;51.018;13.742;2024-03-25T05:00:04;98372.53;;;4.94;76.52
75699;BME280;64313;51.018;13.742;2024-03-25T05:02:30;98379.63;;;4.94;77.10
75699;BME280;64313;51.018;13.742;2024-03-25T05:04:55;98377.81;;;4.94;76.55
75699;BME280;64313;51.018;13.742;2024-03-25T05:07:20;98378.81;;;4.93;77.13
75699;BME280;64313;51.018;13.742;2024-03-25T05:09:46;98381.47;;;4.93;76.29
75699;BME280;64313;51.018;13.742;2024-03-25T05:12:11;98379.63;;;4.94;76.65
75699;BME280;64313;51.018;13.742;2024-03-25T05:14:36;98380.44;;;4.94;76.37
75699;BME280;64313;51.018;13.742;2024-03-25T05:17:01;98385.72;;;4.94;76.80
75699;BME280;64313;51.018;13.742;2024-03-25T05:19:28;98386.53;;;4.95;76.96
75699;BME280;64313;51.018;13.742;2024-03-25T05:21:54;98397.09;;;4.95;76.81
75699;BME280;64313;51.018;13.742;2024-03-25T05:24:19;98406.88;;;4.94;76.55
75699;BME280;64313;51.018;13.742;2024-03-25T05:26:44;98405.84;;;4.95;76.66
75699;BME280;64313;51.018;13.742;2024-03-25T05:29:09;98411.13;;;4.95;77.23
75699;BME280;64313;51.018;13.742;2024-03-25T05:31:35;98409.28;;;4.96;77.04
75699;BME280;64313;51.018;13.742;2024-03-25T05:34:00;98401.59;;;4.94;76.98
75699;BME280;64313;51.018;13.742;2024-03-25T05:36:27;98412.97;;;4.95;76.90
75699;BME280;64313;51.018;13.742;2024-03-25T05:38:53;98414.78;;;4.94;77.18
75699;BME280;64313;51.018;13.742;2024-03-25T05:41:18;98422.13;;;4.92;77.27
75699;BME280;64313;51.018;13.742;2024-03-25T05:43:43;98420.28;;;4.93;76.73
75699;BME280;64313;51.018;13.742;2024-03-25T05:46:09;98420.28;;;4.93;77.01
75699;BME280;64313;51.018;13.742;2024-03-25T05:48:34;98420.28;;;4.93;76.67
75699;BME280;64313;51.018;13.742;2024-03-25T05:51:04;98436.94;;;4.93;77.16
75699;BME280;64313;51.018;13.742;2024-03-25T05:53:35;98423.75;;;4.93;76.52
75699;BME280;64313;51.018;13.742;2024-03-25T05:56:00;98431.66;;;4.93;75.29
75699;BME280;64313;51.018;13.742;2024-03-25T05:58:26;98425.78;;;4.91;74.26
75699;BME280;64313;51.018;13.742;2024-03-25T06:00:52;98432.25;;;4.88;74.29
75699;BME280;64313;51.018;13.742;2024-03-25T06:03:21;98434.09;;;4.88;74.64
75699;BME280;64313;51.018;13.742;2024-03-25T06:05:47;98432.69;;;4.85;75.44
75699;BME280;64313;51.018;13.742;2024-03-25T06:08:12;98444.88;;;4.86;75.68
75699;BME280;64313;51.018;13.742;2024-03-25T06:10:50;98444.06;;;4.86;76.02
75699;BME280;64313;51.018;13.742;2024-03-25T06:13:16;98450.16;;;4.86;76.09
75699;BME280;64313;51.018;13.742;2024-03-25T06:15:41;98447.50;;;4.86;75.64
75699;BME280;64313;51.018;13.742;2024-03-25T06:18:06;98452.59;;;4.88;75.85
75699;BME280;64313;51.018;13.742;2024-03-25T06:20:32;98462.13;;;4.89;76.33
75699;BME280;64313;51.018;13.742;2024-03-25T06:22:57;98461.13;;;4.90;76.25
75699;BME280;64313;51.018;13.742;2024-03-25T06:25:22;98471.50;;;4.92;75.40
75699;BME280;64313;51.018;13.742;2024-03-25T06:27:47;98461.53;;;4.94;76.48
75699;BME280;64313;51.018;13.742;2024-03-25T06:30:13;98470.28;;;4.94;76.24
75699;BME280;64313;51.018;13.742;2024-03-25T06:32:57;98464.78;;;4.96;76.74
75699;BME280;64313;51.018;13.742;2024-03-25T06:35:43;98469.88;;;4.97;75.84
75699;BME280;64313;51.018;13.742;2024-03-25T06:38:08;98474.94;;;4.99;76.48
75699;BME280;64313;51.018;13.742;2024-03-25T06:40:33;98472.91;;;5.01;76.02
75699;BME280;64313;51.018;13.742;2024-03-25T06:42:59;98482.47;;;5.02;75.68
75699;BME280;64313;51.018;13.742;2024-03-25T06:45:24;98479.66;;;5.03;75.20
75699;BME280;64313;51.018;13.742;2024-03-25T06:47:49;98476.78;;;5.05;75.26
75699;BME280;64313;51.018;13.742;2024-03-25T06:50:15;98483.09;;;5.04;75.36
75699;BME280;64313;51.018;13.742;2024-03-25T06:52:40;98487.16;;;5.06;75.69
75699;BME280;64313;51.018;13.742;2024-03-25T06:55:06;98485.09;;;5.08;74.84
75699;BME280;64313;51.018;13.742;2024-03-25T06:57:31;98486.75;;;5.09;74.84
75699;BME280;64313;51.018;13.742;2024-03-25T06:59:56;98487.38;;;5.11;74.51
75699;BME280;64313;51.018;13.742;2024-03-25T07:02:24;98502.00;;;5.14;75.25
75699;BME280;64313;51.018;13.742;2024-03-25T07:04:49;98504.25;;;5.17;74.88
75699;BME280;64313;51.018;13.742;2024-03-25T07:07:15;98503.00;;;5.20;75.01
75699;BME280;64313;51.018;13.742;2024-03-25T07:09:40;98511.16;;;5.25;74.98
75699;BME280;64313;51.018;13.742;2024-03-25T07:12:06;98518.88;;;5.26;74.67
75699;BME280;64313;51.018;13.742;2024-03-25T07:14:31;98514.81;;;5.30;74.43
75699;BME280;64313;51.018;13.742;2024-03-25T07:16:56;98526.00;;;5.32;75.05
75699;BME280;64313;51.018;13.742;2024-03-25T07:19:22;98518.47;;;5.36;75.01
75699;BME280;64313;51.018;13.742;2024-03-25T07:21:47;98530.25;;;5.40;74.31
75699;BME280;64313;51.018;13.742;2024-03-25T07:24:12;98537.00;;;5.42;74.46
75699;BME280;64313;51.018;13.742;2024-03-25T07:26:37;98536.56;;;5.46;75.01
75699;BME280;64313;51.018;13.742;2024-03-25T07:29:03;98542.50;;;5.48;74.57
75699;BME280;64313;51.018;13.742;2024-03-25T07:31:28;98548.16;;;5.51;74.54
75699;BME280;64313;51.018;13.742;2024-03-25T07:33:53;98546.94;;;5.54;73.92
75699;BME280;64313;51.018;13.742;2024-03-25T07:36:19;98556.31;;;5.56;73.96
75699;BME280;64313;51.018;13.742;2024-03-25T07:38:44;98555.06;;;5.59;73.95
75699;BME280;64313;51.018;13.742;2024-03-25T07:41:09;98565.66;;;5.59;73.24
75699;BME280;64313;51.018;13.742;2024-03-25T07:43:34;98560.78;;;5.62;72.97
75699;BME280;64313;51.018;13.742;2024-03-25T07:46:00;98559.56;;;5.65;73.99
75699;BME280;64313;51.018;13.742;2024-03-25T07:48:25;98564.44;;;5.68;73.57
75699;BME280;64313;51.018;13.742;2024-03-25T07:50:52;98562.19;;;5.71;72.75
75699;BME280;64313;51.018;13.742;2024-03-25T07:53:17;98562.41;;;5.77;72.59
75699;BME280;64313;51.018;13.742;2024-03-25T07:55:43;98579.50;;;5.81;72.50
75699;BME280;64313;51.018;13.742;2024-03-25T07:58:08;98571.94;;;5.84;72.75
75699;BME280;64313;51.018;13.742;2024-03-25T08:00:34;98578.69;;;5.87;72.10
75699;BME280;64313;51.018;13.742;2024-03-25T08:03:00;98581.94;;;5.89;71.97
75699;BME280;64313;51.018;13.742;2024-03-25T08:05:26;98578.06;;;5.91;71.31
75699;BME280;64313;51.018;13.742;2024-03-25T08:07:51;98586.66;;;5.93;71.43
75699;BME280;64313;51.018;13.742;2024-03-25T08:10:17;98597.81;;;5.95;71.13
75699;BME280;64313;51.018;13.742;2024-03-25T08:12:42;98583.34;;;5.98;71.49
75699;BME280;64313;51.018;13.742;2024-03-25T08:15:08;98591.94;;;6.00;70.88
75699;BME280;64313;51.018;13.742;2024-03-25T08:17:36;98589.06;;;6.02;70.38
75699;BME280;64313;51.018;13.742;2024-03-25T08:20:02;98595.16;;;6.02;70.05
75699;BME280;64313;51.018;13.742;2024-03-25T08:22:27;98589.66;;;6.04;69.95
75699;BME280;64313;51.018;13.742;2024-03-25T08:24:53;98592.31;;;6.04;69.05
75699;BME280;64313;51.018;13.742;2024-03-25T08:27:18;98596.41;;;6.06;70.52
75699;BME280;64313;51.018;13.742;2024-03-25T08:29:43;98598.03;;;6.07;70.08
75699;BME280;64313;51.018;13.742;2024-03-25T08:32:09;98597.00;;;6.08;69.99
75699;BME280;64313;51.018;13.742;2024-03-25T08:34:34;98606.34;;;6.11;70.54
75699;BME280;64313;51.018;13.742;2024-03-25T08:36:59;98600.06;;;6.12;69.92
75699;BME280;64313;51.018;13.742;2024-03-25T08:39:24;98604.94;;;6.15;70.20
75699;BME280;64313;51.018;13.742;2024-03-25T08:41:50;98590.88;;;6.14;70.23
75699;BME280;64313;51.018;13.742;2024-03-25T08:44:15;98603.69;;;6.17;70.49
75699;BME280;64313;51.018;13.742;2024-03-25T08:46:42;98595.56;;;6.19;69.30
75699;BME280;64313;51.018;13.742;2024-03-25T08:49:07;98598.81;;;6.21;69.85
75699;BME280;64313;51.018;13.742;2024-03-25T08:51:34;98615.06;;;6.24;69.81
75699;BME280;64313;51.018;13.742;2024-03-25T08:53:59;98622.41;;;6.29;70.17
75699;BME280;64313;51.018;13.742;2024-03-25T08:56:24;98627.31;;;6.32;70.08
75699;BME280;64313;51.018;13.742;2024-03-25T08:58:50;98627.09;;;6.34;68.66
75699;BME280;64313;51.018;13.742;2024-03-25T09:01:15;98629.53;;;6.35;68.73
75699;BME280;64313;51.018;13.742;2024-03-25T09:03:41;98624.81;;;6.37;69.38
75699;BME280;64313;51.018;13.742;2024-03-25T09:06:06;98630.97;;;6.38;68.32
75699;BME280;64313;51.018;13.742;2024-03-25T09:08:32;98632.59;;;6.39;67.87
75699;BME280;64313;51.018;13.742;2024-03-25T09:11:17;98626.47;;;6.38;67.04
75699;BME280;64313;51.018;13.742;2024-03-25T09:13:43;98635.03;;;6.40;67.44
75699;BME280;64313;51.018;13.742;2024-03-25T09:16:08;98644.59;;;6.41;68.21
75699;BME280;64313;51.018;13.742;2024-03-25T09:18:33;98638.47;;;6.41;67.51
75699;BME280;64313;51.018;13.742;2024-03-25T09:20:59;98648.84;;;6.42;68.06
75699;BME280;64313;51.018;13.742;2024-03-25T09:23:24;98649.66;;;6.43;68.47
75699;BME280;64313;51.018;13.742;2024-03-25T09:25:53;98647.66;;;6.45;68.92
75699;BME280;64313;51.018;13.742;2024-03-25T09:28:19;98655.97;;;6.48;67.54
75699;BME280;64313;51.018;13.742;2024-03-25T09:30:44;98654.78;;;6.51;67.48
75699;BME280;64313;51.018;13.742;2024-03-25T09:33:09;98661.25;;;6.55;67.63
75699;BME280;64313;51.018;13.742;2024-03-25T09:35:35;98660.06;;;6.58;66.36
75699;BME280;64313;51.018;13.742;2024-03-25T09:38:02;98665.50;;;6.63;66.71
75699;BME280;64313;51.018;13.742;2024-03-25T09:40:28;98660.63;;;6.66;66.26
75699;BME280;64313;51.018;13.742;2024-03-25T09:42:57;98662.66;;;6.71;66.44
75699;BME280;64313;51.018;13.742;2024-03-25T09:45:28;98660.19;;;6.76;65.70
75699;BME280;64313;51.018;13.742;2024-03-25T09:47:54;98663.44;;;6.78;64.99
75699;BME280;64313;51.018;13.742;2024-03-25T09:50:20;98668.09;;;6.83;65.83
75699;BME280;64313;51.018;13.742;2024-03-25T09:52:49;98675.06;;;6.84;64.64
75699;BME280;64313;51.018;13.742;2024-03-25T09:55:15;98676.47;;;6.86;64.52
75699;BME280;64313;51.018;13.742;2024-03-25T09:57:45;98679.53;;;6.90;64.70
75699;BME280;64313;51.018;13.742;2024-03-25T10:00:11;98680.34;;;6.90;65.80
75699;BME280;64313;51.018;13.742;2024-03-25T10:02:41;98695.00;;;6.93;64.36
75699;BME280;64313;51.018;13.742;2024-03-25T10:05:08;98686.22;;;6.92;64.93
75699;BME280;64313;51.018;13.742;2024-03-25T10:07:34;98688.88;;;6.92;65.13
75699;BME280;64313;51.018;13.742;2024-03-25T10:10:05;98694.19;;;6.92;65.81
75699;BME280;64313;51.018;13.742;2024-03-25T10:12:32;98693.16;;;6.93;66.09
75699;BME280;64313;51.018;13.742;2024-03-25T10:14:57;98710.50;;;6.96;65.81
75699;BME280;64313;51.018;13.742;2024-03-25T10:17:23;98697.84;;;6.98;65.90
75699;BME280;64313;51.018;13.742;2024-03-25T10:19:48;98697.41;;;7.01;66.20
75699;BME280;64313;51.018;13.742;2024-03-25T10:22:14;98698.03;;;7.03;65.67
75699;BME280;64313;51.018;13.742;2024-03-25T10:24:42;98693.75;;;7.02;64.00
75699;BME280;64313;51.018;13.742;2024-03-25T10:27:21;98696.41;;;7.02;64.14
75699;BME280;64313;51.018;13.742;2024-03-25T10:29:54;98695.78;;;7.00;64.83
75699;BME280;64313;51.018;13.742;2024-03-25T10:32:23;98701.06;;;7.00;64.99
75699;BME280;64313;51.018;13.742;2024-03-25T10:34:56;98700.28;;;6.99;64.34
75699;BME280;64313;51.018;13.742;2024-03-25T10:37:24;98694.38;;;6.97;63.51
75699;BME280;64313;51.018;13.742;2024-03-25T10:39:54;98704.97;;;6.97;64.83
75699;BME280;64313;51.018;13.742;2024-03-25T10:42:24;98696.81;;;6.99;64.10
75699;BME280;64313;51.018;13.742;2024-03-25T10:44:50;98702.09;;;6.99;64.41
75699;BME280;64313;51.018;13.742;2024-03-25T10:47:20;98688.63;;;7.00;63.02
75699;BME280;64313;51.018;13.742;2024-03-25T10:49:50;98689.03;;;7.04;62.46
75699;BME280;64313;51.018;13.742;2024-03-25T10:52:17;98685.78;;;7.09;62.73
75699;BME280;64313;51.018;13.742;2024-03-25T10:54:46;98692.25;;;7.13;61.62
75699;BME280;64313;51.018;13.742;2024-03-25T10:57:12;98689.22;;;7.16;61.77
75699;BME280;64313;51.018;13.742;2024-03-25T10:59:38;98686.94;;;7.19;61.61
75699;BME280;64313;51.018;13.742;2024-03-25T11:02:09;98698.75;;;7.23;61.72
75699;BME280;64313;51.018;13.742;2024-03-25T11:04:35;98680.78;;;7.25;61.63
75699;BME280;64313;51.018;13.742;2024-03-25T11:07:12;98688.34;;;7.28;61.27
75699;BME280;64313;51.018;13.742;2024-03-25T11:09:38;98694.22;;;7.30;60.49
75699;BME280;64313;51.018;13.742;2024-03-25T11:12:04;98690.53;;;7.31;61.13
75699;BME280;64313;51.018;13.742;2024-03-25T11:14:30;98687.91;;;7.31;59.62
75699;BME280;64313;51.018;13.742;2024-03-25T11:16:59;98692.16;;;7.32;60.24
75699;BME280;64313;51.018;13.742;2024-03-25T11:19:29;98691.75;;;7.36;61.17
75699;BME280;64313;51.018;13.742;2024-03-25T11:22:07;98689.72;;;7.38;61.33
75699;BME280;64313;51.018;13.742;2024-03-25T11:24:34;98689.47;;;7.39;60.72
75699;BME280;64313;51.018;13.742;2024-03-25T11:27:02;98693.56;;;7.42;62.48
75699;BME280;64313;51.018;13.742;2024-03-25T11:29:27;98688.03;;;7.43;60.45
75699;BME280;64313;51.018;13.742;2024-03-25T11:31:53;98689.44;;;7.46;61.08
75699;BME280;64313;51.018;13.742;2024-03-25T11:34:19;98696.38;;;7.47;61.98
75699;BME280;64313;51.018;13.742;2024-03-25T11:36:44;98694.34;;;7.49;60.38
75699;BME280;64313;51.018;13.742;2024-03-25T11:39:11;98687.19;;;7.49;60.99
75699;BME280;64313;51.018;13.742;2024-03-25T11:41:41;98688.59;;;7.52;61.16
75699;BME280;64313;51.018;13.742;2024-03-25T11:44:11;98684.91;;;7.53;61.29
75699;BME280;64313;51.018;13.742;2024-03-25T11:46:38;98691.44;;;7.57;62.76
75699;BME280;64313;51.018;13.742;2024-03-25T11:49:09;98683.88;;;7.60;60.97
75699;BME280;64313;51.018;13.742;2024-03-25T11:51:35;98690.59;;;7.63;61.00
75699;BME280;64313;51.018;13.742;2024-03-25T11:54:03;98686.91;;;7.64;60.76
75699;BME280;64313;51.018;13.742;2024-03-25T11:56:30;98694.44;;;7.67;60.00
75699;BME280;64313;51.018;13.742;2024-03-25T11:58:55;98697.09;;;7.67;58.78
75699;BME280;64313;51.018;13.742;2024-03-25T12:01:21;98689.13;;;7.67;57.09
75699;BME280;64313;51.018;13.742;2024-03-25T12:03:46;98684.63;;;7.68;57.10
75699;BME280;64313;51.018;13.742;2024-03-25T12:06:11;98682.81;;;7.68;58.58
75699;BME280;64313;51.018;13.742;2024-03-25T12:08:37;98682.00;;;7.68;57.69
75699;BME280;64313;51.018;13.742;2024-03-25T12:11:10;98682.81;;;7.68;58.43
75699;BME280;64313;51.018;13.742;2024-03-25T12:13:45;98691.56;;;7.69;57.99
75699;BME280;64313;51.018;13.742;2024-03-25T12:16:10;98685.22;;;7.70;58.26
75699;BME280;64313;51.018;13.742;2024-03-25T12:18:36;98692.56;;;7.74;59.36
75699;BME280;64313;51.018;13.742;2024-03-25T12:21:04;98698.03;;;7.79;58.75
75699;BME280;64313;51.018;13.742;2024-03-25T12:23:30;98691.44;;;7.88;59.07
75699;BME280;64313;51.018;13.742;2024-03-25T12:25:56;98697.72;;;7.94;57.90
75699;BME280;64313;51.018;13.742;2024-03-25T12:28:23;98699.94;;;7.97;58.26
75699;BME280;64313;51.018;13.742;2024-03-25T12:30:51;98693.59;;;7.98;58.24
75699;BME280;64313;51.018;13.742;2024-03-25T12:33:16;98699.31;;;8.02;58.15
75699;BME280;64313;51.018;13.742;2024-03-25T12:35:45;98700.69;;;8.04;58.95
75699;BME280;64313;51.018;13.742;2024-03-25T12:38:21;98703.97;;;8.06;58.99
75699;BME280;64313;51.018;13.742;2024-03-25T12:40:47;98697.63;;;8.07;58.83
75699;BME280;64313;51.018;13.742;2024-03-25T12:43:15;98699.47;;;8.07;59.80
75699;BME280;64313;51.018;13.742;2024-03-25T12:45:41;98709.06;;;8.08;57.92
75699;BME280;64313;51.018;13.742;2024-03-25T12:48:08;98704.78;;;8.07;56.85
75699;BME280;64313;51.018;13.742;2024-03-25T12:50:35;98714.59;;;8.06;57.90
75699;BME280;64313;51.018;13.742;2024-03-25T12:53:00;98706.63;;;8.06;57.12
75699;BME280;64313;51.018;13.742;2024-03-25T12:55:25;98702.34;;;8.05;57.38